sensor_id;sensor_type;location;lat;lon;timestamp;P1;durP1;ratioP1;P2;durP2;ratioP2
7563;SDS011;3823;53.586;10.040;2023-06-24T04:02:29;10.65;;;9.55;;
7563;SDS011;3823;53.586;10.040;2023-06-24T04:04:55;11.60;;;8.88;;
7563;SDS011;3823;53.586;10.040;2023-06-24T04:07:21;10.75;;;8.55;;
7563;SDS011;3823;53.586;10.040;2023-06-24T04:09:51;9.32;;;8.02;;
7563;SDS011;3823;53.586;10.040;2023-06-24T04:12:20;9.23;;;8.15;;
7563;SDS011;3823;53.586;10.040;2023-06-24T04:14:46;9.23;;;8.32;;
7563;SDS011;3823;53.586;10.040;2023-06-24T04:17:12;13.68;;;8.68;;
7563;SDS011;3823;53.586;10.040;2023-06-24T04:19:37;16.05;;;8.68;;
7563;SDS011;3823;53.586;10.040;2023-06-24T04:22:04;8.63;;;7.68;;
7563;SDS011;3823;53.586;10.040;2023-06-24T04:24:30;9.38;;;8.15;;
7563;SDS011;3823;53.586;10.040;2023-06-24T04:26:55;12.48;;;8.23;;
7563;SDS011;3823;53.586;10.040;2023-06-24T04:29:21;10.38;;;8.80;;
7563;SDS011;3823;53.586;10.040;2023-06-24T04:31:46;8.50;;;7.60;;
7563;SDS011;3823;53.586;10.040;2023-06-24T04:34:12;9.65;;;7.45;;
7563;SDS011;3823;53.586;10.040;2023-06-24T04:36:37;10.32;;;7.47;;
7563;SDS011;3823;53.586;10.040;2023-06-24T04:39:04;9.68;;;7.10;;
7563;SDS011;3823;53.586;10.040;2023-06-24T04:41:29;8.00;;;6.05;;
7563;SDS011;3823;53.586;10.040;2023-06-24T04:43:57;7.65;;;6.95;;
7563;SDS011;3823;53.586;10.040;2023-06-24T04:46:22;7.10;;;6.40;;
7563;SDS011;3823;53.586;10.040;2023-06-24T04:48:48;6.22;;;5.63;;
7563;SDS011;3823;53.586;10.040;2023-06-24T04:51:14;7.53;;;6.75;;
7563;SDS011;3823;53.586;10.040;2023-06-24T04:53:40;9.10;;;6.38;;
7563;SDS011;3823;53.586;10.040;2023-06-24T04:56:05;10.35;;;5.32;;
7563;SDS011;3823;53.586;10.040;2023-06-24T04:58:31;7.15;;;5.93;;
7563;SDS011;3823;53.586;10.040;2023-06-24T05:00:57;9.60;;;6.15;;
7563;SDS011;3823;53.586;10.040;2023-06-24T05:03:23;8.68;;;6.00;;
7563;SDS011;3823;53.586;10.040;2023-06-24T05:05:49;7.80;;;5.43;;
7563;SDS011;3823;53.586;10.040;2023-06-24T05:08:14;9.05;;;5.10;;
7563;SDS011;3823;53.586;10.040;2023-06-24T05:10:40;5.93;;;5.32;;
7563;SDS011;3823;53.586;10.040;2023-06-24T05:13:06;5.82;;;5.18;;
7563;SDS011;3823;53.586;10.040;2023-06-24T05:15:31;9.93;;;6.82;;
7563;SDS011;3823;53.586;10.040;2023-06-24T05:17:57;10.68;;;6.28;;
7563;SDS011;3823;53.586;10.040;2023-06-24T05:20:22;6.47;;;5.38;;
7563;SDS011;3823;53.586;10.040;2023-06-24T05:22:48;5.95;;;5.28;;
7563;SDS011;3823;53.586;10.040;2023-06-24T05:25:13;5.20;;;4.80;;
7563;SDS011;3823;53.586;10.040;2023-06-24T05:27:39;11.00;;;5.30;;
7563;SDS011;3823;53.586;10.040;2023-06-24T05:30:05;5.80;;;5.20;;
7563;SDS011;3823;53.586;10.040;2023-06-24T05:32:31;7.70;;;5.18;;
7563;SDS011;3823;53.586;10.040;2023-06-24T05:34:56;5.15;;;4.25;;
7563;SDS011;3823;53.586;10.040;2023-06-24T05:37:22;6.00;;;4.38;;
7563;SDS011;3823;53.586;10.040;2023-06-24T05:39:48;5.20;;;4.78;;
7563;SDS011;3823;53.586;10.040;2023-06-24T05:42:13;7.03;;;5.43;;
7563;SDS011;3823;53.586;10.040;2023-06-24T05:44:39;8.57;;;4.82;;
7563;SDS011;3823;53.586;10.040;2023-06-24T05:47:04;5.20;;;4.65;;
7563;SDS011;3823;53.586;10.040;2023-06-24T05:49:30;5.43;;;4.93;;
7563;SDS011;3823;53.586;10.040;2023-06-24T05:51:56;4.53;;;4.13;;
7563;SDS011;3823;53.586;10.040;2023-06-24T05:54:22;5.30;;;4.80;;
7563;SDS011;3823;53.586;10.040;2023-06-24T05:56:48;5.22;;;4.32;;
7563;SDS011;3823;53.586;10.040;2023-06-24T05:59:14;9.02;;;4.50;;
7563;SDS011;3823;53.586;10.040;2023-06-24T06:01:39;5.82;;;4.93;;
7563;SDS011;3823;53.586;10.040;2023-06-24T06:04:05;4.57;;;4.22;;
7563;SDS011;3823;53.586;10.040;2023-06-24T06:06:30;5.55;;;4.97;;
7563;SDS011;3823;53.586;10.040;2023-06-24T06:08:56;4.95;;;3.80;;
7563;SDS011;3823;53.586;10.040;2023-06-24T06:11:22;8.00;;;5.47;;
7563;SDS011;3823;53.586;10.040;2023-06-24T06:13:48;4.68;;;4.38;;
7563;SDS011;3823;53.586;10.040;2023-06-24T06:16:13;7.07;;;4.47;;
7563;SDS011;3823;53.586;10.040;2023-06-24T06:18:39;4.25;;;3.72;;
7563;SDS011;3823;53.586;10.040;2023-06-24T06:21:04;8.20;;;4.63;;
7563;SDS011;3823;53.586;10.040;2023-06-24T06:23:30;5.25;;;4.70;;
7563;SDS011;3823;53.586;10.040;2023-06-24T06:25:55;5.90;;;4.20;;
7563;SDS011;3823;53.586;10.040;2023-06-24T06:28:21;9.43;;;4.75;;
7563;SDS011;3823;53.586;10.040;2023-06-24T06:30:47;9.18;;;4.60;;
7563;SDS011;3823;53.586;10.040;2023-06-24T06:33:12;4.93;;;4.50;;
7563;SDS011;3823;53.586;10.040;2023-06-24T06:35:38;6.47;;;4.38;;
7563;SDS011;3823;53.586;10.040;2023-06-24T06:38:04;9.48;;;7.35;;
7563;SDS011;3823;53.586;10.040;2023-06-24T06:40:30;4.80;;;3.53;;
7563;SDS011;3823;53.586;10.040;2023-06-24T06:42:56;4.50;;;3.85;;
7563;SDS011;3823;53.586;10.040;2023-06-24T06:45:21;4.35;;;3.90;;
7563;SDS011;3823;53.586;10.040;2023-06-24T06:47:47;5.10;;;4.00;;
7563;SDS011;3823;53.586;10.040;2023-06-24T06:50:13;5.18;;;4.05;;
7563;SDS011;3823;53.586;10.040;2023-06-24T06:52:39;3.90;;;3.50;;
7563;SDS011;3823;53.586;10.040;2023-06-24T06:55:04;5.60;;;4.57;;
7563;SDS011;3823;53.586;10.040;2023-06-24T06:57:30;4.05;;;3.65;;
7563;SDS011;3823;53.586;10.040;2023-06-24T06:59:56;3.63;;;3.30;;
7563;SDS011;3823;53.586;10.040;2023-06-24T07:02:22;4.22;;;3.88;;
7563;SDS011;3823;53.586;10.040;2023-06-24T07:04:48;4.45;;;4.13;;
7563;SDS011;3823;53.586;10.040;2023-06-24T07:07:15;3.95;;;3.38;;
7563;SDS011;3823;53.586;10.040;2023-06-24T07:09:41;3.53;;;2.80;;
7563;SDS011;3823;53.586;10.040;2023-06-24T07:12:06;4.45;;;3.30;;
7563;SDS011;3823;53.586;10.040;2023-06-24T07:14:32;3.53;;;3.22;;
7563;SDS011;3823;53.586;10.040;2023-06-24T07:16:58;3.72;;;3.42;;
7563;SDS011;3823;53.586;10.040;2023-06-24T07:19:23;5.00;;;3.17;;
7563;SDS011;3823;53.586;10.040;2023-06-24T07:21:49;4.43;;;3.15;;
7563;SDS011;3823;53.586;10.040;2023-06-24T07:24:14;3.65;;;3.35;;
7563;SDS011;3823;53.586;10.040;2023-06-24T07:26:40;5.65;;;4.05;;
7563;SDS011;3823;53.586;10.040;2023-06-24T07:29:06;3.45;;;3.10;;
7563;SDS011;3823;53.586;10.040;2023-06-24T07:31:32;5.68;;;2.97;;
7563;SDS011;3823;53.586;10.040;2023-06-24T07:33:58;4.88;;;3.60;;
7563;SDS011;3823;53.586;10.040;2023-06-24T07:36:24;4.22;;;3.60;;
7563;SDS011;3823;53.586;10.040;2023-06-24T07:38:49;3.80;;;3.20;;
7563;SDS011;3823;53.586;10.040;2023-06-24T07:41:15;3.50;;;3.20;;
7563;SDS011;3823;53.586;10.040;2023-06-24T07:43:40;3.97;;;2.83;;
7563;SDS011;3823;53.586;10.040;2023-06-24T07:46:06;4.15;;;3.42;;
7563;SDS011;3823;53.586;10.040;2023-06-24T07:48:32;3.70;;;3.40;;
7563;SDS011;3823;53.586;10.040;2023-06-24T07:50:57;3.83;;;3.42;;
7563;SDS011;3823;53.586;10.040;2023-06-24T07:53:23;4.50;;;3.28;;
7563;SDS011;3823;53.586;10.040;2023-06-24T07:55:49;3.92;;;3.70;;
7563;SDS011;3823;53.586;10.040;2023-06-24T07:58:14;3.35;;;3.08;;
7563;SDS011;3823;53.586;10.040;2023-06-24T08:00:40;3.72;;;3.42;;
7563;SDS011;3823;53.586;10.040;2023-06-24T08:03:06;3.90;;;3.60;;
7563;SDS011;3823;53.586;10.040;2023-06-24T08:05:31;4.07;;;3.78;;
7563;SDS011;3823;53.586;10.040;2023-06-24T08:07:57;3.47;;;3.25;;
7563;SDS011;3823;53.586;10.040;2023-06-24T08:10:22;3.55;;;3.33;;
7563;SDS011;3823;53.586;10.040;2023-06-24T08:12:48;4.07;;;3.22;;
7563;SDS011;3823;53.586;10.040;2023-06-24T08:15:13;5.43;;;4.15;;
7563;SDS011;3823;53.586;10.040;2023-06-24T08:17:40;4.45;;;3.67;;
7563;SDS011;3823;53.586;10.040;2023-06-24T08:20:05;4.00;;;3.65;;
7563;SDS011;3823;53.586;10.040;2023-06-24T08:22:32;4.47;;;4.18;;
7563;SDS011;3823;53.586;10.040;2023-06-24T08:24:58;4.40;;;3.95;;
7563;SDS011;3823;53.586;10.040;2023-06-24T08:27:23;6.38;;;4.35;;
7563;SDS011;3823;53.586;10.040;2023-06-24T08:29:49;4.10;;;3.80;;
7563;SDS011;3823;53.586;10.040;2023-06-24T08:32:15;4.55;;;4.25;;
7563;SDS011;3823;53.586;10.040;2023-06-24T08:34:40;4.40;;;4.07;;
7563;SDS011;3823;53.586;10.040;2023-06-24T08:37:06;5.90;;;3.92;;
7563;SDS011;3823;53.586;10.040;2023-06-24T08:39:31;3.78;;;3.40;;
7563;SDS011;3823;53.586;10.040;2023-06-24T08:41:57;4.60;;;4.20;;
7563;SDS011;3823;53.586;10.040;2023-06-24T08:44:22;4.45;;;4.05;;
7563;SDS011;3823;53.586;10.040;2023-06-24T08:46:48;7.60;;;4.43;;
7563;SDS011;3823;53.586;10.040;2023-06-24T08:49:16;4.75;;;4.35;;
7563;SDS011;3823;53.586;10.040;2023-06-24T08:51:49;4.78;;;4.25;;
7563;SDS011;3823;53.586;10.040;2023-06-24T08:54:28;4.88;;;4.03;;
7563;SDS011;3823;53.586;10.040;2023-06-24T08:56:56;6.07;;;4.15;;
7563;SDS011;3823;53.586;10.040;2023-06-24T08:59:22;5.38;;;4.00;;
7563;SDS011;3823;53.586;10.040;2023-06-24T09:01:49;4.35;;;3.95;;
7563;SDS011;3823;53.586;10.040;2023-06-24T09:04:17;4.60;;;4.18;;
7563;SDS011;3823;53.586;10.040;2023-06-24T09:06:43;3.67;;;3.38;;
7563;SDS011;3823;53.586;10.040;2023-06-24T09:09:19;4.60;;;3.85;;
7563;SDS011;3823;53.586;10.040;2023-06-24T09:11:52;3.85;;;3.55;;
7563;SDS011;3823;53.586;10.040;2023-06-24T09:14:21;4.18;;;3.88;;
7563;SDS011;3823;53.586;10.040;2023-06-24T09:16:57;4.50;;;4.15;;
7563;SDS011;3823;53.586;10.040;2023-06-24T09:19:26;3.88;;;3.53;;
7563;SDS011;3823;53.586;10.040;2023-06-24T09:22:07;3.45;;;3.20;;
7563;SDS011;3823;53.586;10.040;2023-06-24T09:24:34;4.50;;;3.70;;
7563;SDS011;3823;53.586;10.040;2023-06-24T09:27:00;3.53;;;3.33;;
7563;SDS011;3823;53.586;10.040;2023-06-24T09:29:27;6.88;;;3.47;;
7563;SDS011;3823;53.586;10.040;2023-06-24T09:31:53;3.95;;;3.42;;
7563;SDS011;3823;53.586;10.040;2023-06-24T09:34:20;3.25;;;3.05;;
7563;SDS011;3823;53.586;10.040;2023-06-24T09:36:54;3.95;;;3.65;;
7563;SDS011;3823;53.586;10.040;2023-06-24T09:39:21;5.28;;;3.80;;
7563;SDS011;3823;53.586;10.040;2023-06-24T09:41:53;3.30;;;3.10;;
7563;SDS011;3823;53.586;10.040;2023-06-24T09:44:19;3.13;;;2.92;;
7563;SDS011;3823;53.586;10.040;2023-06-24T09:46:45;4.95;;;3.20;;
7563;SDS011;3823;53.586;10.040;2023-06-24T09:49:11;3.05;;;2.85;;
7563;SDS011;3823;53.586;10.040;2023-06-24T09:51:43;4.00;;;3.00;;
7563;SDS011;3823;53.586;10.040;2023-06-24T09:54:13;4.63;;;4.20;;
7563;SDS011;3823;53.586;10.040;2023-06-24T09:56:42;4.32;;;3.60;;
7563;SDS011;3823;53.586;10.040;2023-06-24T09:59:10;8.32;;;3.33;;
7563;SDS011;3823;53.586;10.040;2023-06-24T10:01:44;4.32;;;3.67;;
7563;SDS011;3823;53.586;10.040;2023-06-24T10:04:13;4.53;;;3.65;;
7563;SDS011;3823;53.586;10.040;2023-06-24T10:06:41;8.98;;;4.68;;
7563;SDS011;3823;53.586;10.040;2023-06-24T10:09:07;4.05;;;3.70;;
7563;SDS011;3823;53.586;10.040;2023-06-24T10:11:33;3.47;;;3.17;;
7563;SDS011;3823;53.586;10.040;2023-06-24T10:13:59;3.63;;;3.28;;
7563;SDS011;3823;53.586;10.040;2023-06-24T10:16:25;5.25;;;4.70;;
7563;SDS011;3823;53.586;10.040;2023-06-24T10:18:50;4.47;;;4.07;;
7563;SDS011;3823;53.586;10.040;2023-06-24T10:21:16;4.85;;;3.90;;
7563;SDS011;3823;53.586;10.040;2023-06-24T10:23:43;5.38;;;4.18;;
7563;SDS011;3823;53.586;10.040;2023-06-24T10:26:25;4.72;;;4.38;;
7563;SDS011;3823;53.586;10.040;2023-06-24T10:36:53;7.28;;;4.00;;
7563;SDS011;3823;53.586;10.040;2023-06-24T10:39:38;4.60;;;4.15;;
7563;SDS011;3823;53.586;10.040;2023-06-24T10:42:29;4.35;;;3.83;;
7563;SDS011;3823;53.586;10.040;2023-06-24T10:44:58;3.88;;;3.58;;
7563;SDS011;3823;53.586;10.040;2023-06-24T10:47:26;4.43;;;4.03;;
7563;SDS011;3823;53.586;10.040;2023-06-24T10:49:52;8.55;;;4.35;;
7563;SDS011;3823;53.586;10.040;2023-06-24T10:52:19;4.13;;;3.80;;
7563;SDS011;3823;53.586;10.040;2023-06-24T10:54:49;4.30;;;3.90;;
7563;SDS011;3823;53.586;10.040;2023-06-24T10:57:20;4.43;;;4.10;;
7563;SDS011;3823;53.586;10.040;2023-06-24T10:59:48;9.82;;;3.75;;
7563;SDS011;3823;53.586;10.040;2023-06-24T11:02:17;4.07;;;3.08;;
7563;SDS011;3823;53.586;10.040;2023-06-24T11:04:48;5.15;;;4.65;;
7563;SDS011;3823;53.586;10.040;2023-06-24T11:07:17;3.67;;;3.15;;
7563;SDS011;3823;53.586;10.040;2023-06-24T11:09:56;4.10;;;3.55;;
7563;SDS011;3823;53.586;10.040;2023-06-24T11:12:36;4.68;;;4.28;;
7563;SDS011;3823;53.586;10.040;2023-06-24T11:15:06;6.82;;;4.15;;
7563;SDS011;3823;53.586;10.040;2023-06-24T11:17:33;4.03;;;3.65;;
7563;SDS011;3823;53.586;10.040;2023-06-24T11:20:00;3.78;;;3.47;;
7563;SDS011;3823;53.586;10.040;2023-06-24T11:22:26;4.45;;;4.05;;
7563;SDS011;3823;53.586;10.040;2023-06-24T11:24:52;4.25;;;3.83;;
7563;SDS011;3823;53.586;10.040;2023-06-24T11:27:25;3.80;;;3.50;;
7563;SDS011;3823;53.586;10.040;2023-06-24T11:29:55;4.72;;;3.63;;
7563;SDS011;3823;53.586;10.040;2023-06-24T11:32:36;3.65;;;3.35;;
7563;SDS011;3823;53.586;10.040;2023-06-24T11:35:03;3.58;;;3.38;;
7563;SDS011;3823;53.586;10.040;2023-06-24T11:37:31;3.67;;;3.47;;
7563;SDS011;3823;53.586;10.040;2023-06-24T11:40:00;3.88;;;3.53;;
7563;SDS011;3823;53.586;10.040;2023-06-24T11:42:30;4.00;;;3.38;;
7563;SDS011;3823;53.586;10.040;2023-06-24T11:45:12;3.97;;;3.67;;
7563;SDS011;3823;53.586;10.040;2023-06-24T11:47:40;5.57;;;3.75;;
7563;SDS011;3823;53.586;10.040;2023-06-24T11:50:06;5.60;;;5.07;;
7563;SDS011;3823;53.586;10.040;2023-06-24T11:54:59;4.35;;;3.88;;
7563;SDS011;3823;53.586;10.040;2023-06-24T12:00:15;3.47;;;2.95;;
7563;SDS011;3823;53.586;10.040;2023-06-24T12:02:41;5.10;;;4.57;;
7563;SDS011;3823;53.586;10.040;2023-06-24T12:05:06;4.47;;;3.88;;
7563;SDS011;3823;53.586;10.040;2023-06-24T12:07:33;6.30;;;4.03;;
7563;SDS011;3823;53.586;10.040;2023-06-24T12:09:59;4.20;;;3.80;;
7563;SDS011;3823;53.586;10.040;2023-06-24T12:12:24;4.80;;;4.32;;
7563;SDS011;3823;53.586;10.040;2023-06-24T12:14:50;3.65;;;3.42;;
7563;SDS011;3823;53.586;10.040;2023-06-24T12:17:16;3.58;;;3.28;;
7563;SDS011;3823;53.586;10.040;2023-06-24T12:19:41;4.88;;;4.35;;
7563;SDS011;3823;53.586;10.040;2023-06-24T12:22:07;3.83;;;3.53;;
7563;SDS011;3823;53.586;10.040;2023-06-24T12:24:33;4.88;;;4.47;;
7563;SDS011;3823;53.586;10.040;2023-06-24T12:26:58;3.90;;;3.50;;
7563;SDS011;3823;53.586;10.040;2023-06-24T12:29:24;3.90;;;3.60;;
7563;SDS011;3823;53.586;10.040;2023-06-24T12:31:49;4.63;;;4.22;;
7563;SDS011;3823;53.586;10.040;2023-06-24T12:34:15;4.93;;;4.03;;
7563;SDS011;3823;53.586;10.040;2023-06-24T12:36:40;4.15;;;3.85;;
7563;SDS011;3823;53.586;10.040;2023-06-24T12:39:06;3.08;;;2.88;;
7563;SDS011;3823;53.586;10.040;2023-06-24T12:41:31;4.15;;;3.85;;
7563;SDS011;3823;53.586;10.040;2023-06-24T12:43:58;4.40;;;3.90;;
7563;SDS011;3823;53.586;10.040;2023-06-24T12:46:24;4.43;;;4.03;;
7563;SDS011;3823;53.586;10.040;2023-06-24T12:48:49;4.93;;;4.45;;
7563;SDS011;3823;53.586;10.040;2023-06-24T12:51:15;4.70;;;4.30;;
7563;SDS011;3823;53.586;10.040;2023-06-24T12:53:40;4.45;;;4.03;;
7563;SDS011;3823;53.586;10.040;2023-06-24T12:56:06;5.00;;;4.30;;
7563;SDS011;3823;53.586;10.040;2023-06-24T12:58:33;5.50;;;5.10;;
7563;SDS011;3823;53.586;10.040;2023-06-24T13:00:59;5.45;;;4.28;;
7563;SDS011;3823;53.586;10.040;2023-06-24T13:03:24;4.13;;;3.80;;
7563;SDS011;3823;53.586;10.040;2023-06-24T13:05:50;4.10;;;3.80;;
7563;SDS011;3823;53.586;10.040;2023-06-24T13:08:16;5.75;;;4.70;;
7563;SDS011;3823;53.586;10.040;2023-06-24T13:10:41;4.95;;;3.78;;
7563;SDS011;3823;53.586;10.040;2023-06-24T13:13:07;5.78;;;4.03;;
7563;SDS011;3823;53.586;10.040;2023-06-24T13:15:32;4.55;;;4.25;;
7563;SDS011;3823;53.586;10.040;2023-06-24T13:17:58;4.00;;;3.78;;
7563;SDS011;3823;53.586;10.040;2023-06-24T13:20:24;4.70;;;3.58;;
7563;SDS011;3823;53.586;10.040;2023-06-24T13:22:49;3.67;;;3.38;;
7563;SDS011;3823;53.586;10.040;2023-06-24T13:25:15;3.90;;;3.60;;
7563;SDS011;3823;53.586;10.040;2023-06-24T13:27:40;3.70;;;3.47;;
7563;SDS011;3823;53.586;10.040;2023-06-24T13:30:06;4.22;;;3.75;;
7563;SDS011;3823;53.586;10.040;2023-06-24T13:32:32;4.20;;;3.90;;
7563;SDS011;3823;53.586;10.040;2023-06-24T13:34:58;4.63;;;4.22;;
7563;SDS011;3823;53.586;10.040;2023-06-24T13:37:23;6.32;;;4.60;;
7563;SDS011;3823;53.586;10.040;2023-06-24T13:39:50;3.80;;;3.50;;
7563;SDS011;3823;53.586;10.040;2023-06-24T13:42:15;12.35;;;3.90;;
7563;SDS011;3823;53.586;10.040;2023-06-24T13:44:41;4.40;;;3.35;;
7563;SDS011;3823;53.586;10.040;2023-06-24T13:47:06;3.35;;;3.15;;
7563;SDS011;3823;53.586;10.040;2023-06-24T13:49:32;6.05;;;3.53;;
7563;SDS011;3823;53.586;10.040;2023-06-24T13:51:58;4.53;;;3.20;;
7563;SDS011;3823;53.586;10.040;2023-06-24T13:54:24;6.10;;;3.47;;
7563;SDS011;3823;53.586;10.040;2023-06-24T13:56:49;3.58;;;3.28;;
7563;SDS011;3823;53.586;10.040;2023-06-24T13:59:15;4.40;;;3.83;;
7563;SDS011;3823;53.586;10.040;2023-06-24T14:01:41;4.82;;;3.95;;
7563;SDS011;3823;53.586;10.040;2023-06-24T14:04:06;3.55;;;3.25;;
7563;SDS011;3823;53.586;10.040;2023-06-24T14:06:32;3.42;;;3.13;;
7563;SDS011;3823;53.586;10.040;2023-06-24T14:08:57;3.60;;;3.22;;
7563;SDS011;3823;53.586;10.040;2023-06-24T14:11:23;4.32;;;3.85;;
7563;SDS011;3823;53.586;10.040;2023-06-24T14:13:48;4.90;;;3.15;;
7563;SDS011;3823;53.586;10.040;2023-06-24T14:16:14;4.13;;;3.83;;
7563;SDS011;3823;53.586;10.040;2023-06-24T14:18:40;5.00;;;3.30;;
7563;SDS011;3823;53.586;10.040;2023-06-24T14:21:06;3.35;;;3.15;;
7563;SDS011;3823;53.586;10.040;2023-06-24T14:23:32;3.80;;;3.50;;
7563;SDS011;3823;53.586;10.040;2023-06-24T14:25:58;2.65;;;2.45;;
7563;SDS011;3823;53.586;10.040;2023-06-24T14:28:24;4.90;;;3.35;;
7563;SDS011;3823;53.586;10.040;2023-06-24T14:30:51;3.85;;;3.58;;
7563;SDS011;3823;53.586;10.040;2023-06-24T14:33:16;4.20;;;3.88;;
7563;SDS011;3823;53.586;10.040;2023-06-24T14:35:42;4.40;;;4.00;;
7563;SDS011;3823;53.586;10.040;2023-06-24T14:38:08;3.83;;;3.53;;
7563;SDS011;3823;53.586;10.040;2023-06-24T14:40:33;3.47;;;3.20;;
7563;SDS011;3823;53.586;10.040;2023-06-24T14:42:59;6.22;;;3.83;;
7563;SDS011;3823;53.586;10.040;2023-06-24T14:45:25;4.63;;;3.55;;
7563;SDS011;3823;53.586;10.040;2023-06-24T14:47:51;3.03;;;2.70;;
7563;SDS011;3823;53.586;10.040;2023-06-24T14:50:17;4.07;;;3.63;;
7563;SDS011;3823;53.586;10.040;2023-06-24T14:52:43;9.35;;;3.72;;
7563;SDS011;3823;53.586;10.040;2023-06-24T14:55:09;3.33;;;3.03;;
7563;SDS011;3823;53.586;10.040;2023-06-24T14:57:35;3.70;;;3.25;;
7563;SDS011;3823;53.586;10.040;2023-06-24T15:00:01;4.57;;;4.28;;
7563;SDS011;3823;53.586;10.040;2023-06-24T15:02:27;3.35;;;3.05;;
7563;SDS011;3823;53.586;10.040;2023-06-24T15:04:53;5.40;;;3.40;;
7563;SDS011;3823;53.586;10.040;2023-06-24T15:07:18;3.60;;;3.38;;
7563;SDS011;3823;53.586;10.040;2023-06-24T15:09:44;4.15;;;3.85;;
7563;SDS011;3823;53.586;10.040;2023-06-24T15:12:10;4.75;;;3.90;;
7563;SDS011;3823;53.586;10.040;2023-06-24T15:14:35;3.47;;;3.17;;
7563;SDS011;3823;53.586;10.040;2023-06-24T15:17:01;3.22;;;3.00;;
7563;SDS011;3823;53.586;10.040;2023-06-24T15:19:27;3.45;;;3.25;;
7563;SDS011;3823;53.586;10.040;2023-06-24T15:21:53;3.70;;;3.40;;
7563;SDS011;3823;53.586;10.040;2023-06-24T15:24:18;5.80;;;3.83;;
7563;SDS011;3823;53.586;10.040;2023-06-24T15:26:44;3.45;;;3.25;;
7563;SDS011;3823;53.586;10.040;2023-06-24T15:29:10;4.65;;;3.83;;
7563;SDS011;3823;53.586;10.040;2023-06-24T15:31:35;4.07;;;3.78;;
7563;SDS011;3823;53.586;10.040;2023-06-24T15:34:01;3.88;;;3.58;;
7563;SDS011;3823;53.586;10.040;2023-06-24T15:36:26;4.15;;;3.58;;
7563;SDS011;3823;53.586;10.040;2023-06-24T15:38:53;3.88;;;3.20;;
7563;SDS011;3823;53.586;10.040;2023-06-24T15:41:20;3.92;;;3.63;;
7563;SDS011;3823;53.586;10.040;2023-06-24T15:43:45;3.80;;;3.50;;
7563;SDS011;3823;53.586;10.040;2023-06-24T15:46:12;3.80;;;3.50;;
7563;SDS011;3823;53.586;10.040;2023-06-24T15:48:37;4.78;;;4.28;;
7563;SDS011;3823;53.586;10.040;2023-06-24T15:51:03;5.75;;;5.25;;
7563;SDS011;3823;53.586;10.040;2023-06-24T15:53:29;3.97;;;3.67;;
7563;SDS011;3823;53.586;10.040;2023-06-24T15:55:55;4.50;;;4.10;;
7563;SDS011;3823;53.586;10.040;2023-06-24T15:58:20;3.80;;;3.50;;
7563;SDS011;3823;53.586;10.040;2023-06-24T16:00:46;4.78;;;3.97;;
7563;SDS011;3823;53.586;10.040;2023-06-24T16:03:11;4.57;;;3.58;;
7563;SDS011;3823;53.586;10.040;2023-06-24T16:05:37;4.07;;;3.78;;
7563;SDS011;3823;53.586;10.040;2023-06-24T16:08:03;4.72;;;4.32;;
7563;SDS011;3823;53.586;10.040;2023-06-24T16:10:29;4.10;;;3.80;;
7563;SDS011;3823;53.586;10.040;2023-06-24T16:12:54;5.50;;;4.55;;
7563;SDS011;3823;53.586;10.040;2023-06-24T16:15:20;4.10;;;3.63;;
7563;SDS011;3823;53.586;10.040;2023-06-24T16:17:46;3.65;;;3.35;;
7563;SDS011;3823;53.586;10.040;2023-06-24T16:20:11;4.50;;;4.05;;
7563;SDS011;3823;53.586;10.040;2023-06-24T16:22:41;4.00;;;3.70;;
7563;SDS011;3823;53.586;10.040;2023-06-24T16:25:07;4.45;;;4.13;;
7563;SDS011;3823;53.586;10.040;2023-06-24T16:27:33;4.88;;;3.97;;
7563;SDS011;3823;53.586;10.040;2023-06-24T16:29:59;5.53;;;3.65;;
7563;SDS011;3823;53.586;10.040;2023-06-24T16:32:24;5.30;;;3.92;;
7563;SDS011;3823;53.586;10.040;2023-06-24T16:34:50;4.10;;;3.80;;
7563;SDS011;3823;53.586;10.040;2023-06-24T16:37:15;4.25;;;3.95;;
7563;SDS011;3823;53.586;10.040;2023-06-24T16:39:41;3.95;;;3.65;;
7563;SDS011;3823;53.586;10.040;2023-06-24T16:42:07;4.65;;;4.07;;
7563;SDS011;3823;53.586;10.040;2023-06-24T16:44:32;4.60;;;4.20;;
7563;SDS011;3823;53.586;10.040;2023-06-24T16:47:01;5.35;;;4.85;;
7563;SDS011;3823;53.586;10.040;2023-06-24T16:49:28;5.03;;;4.53;;
7563;SDS011;3823;53.586;10.040;2023-06-24T16:51:53;8.88;;;5.53;;
7563;SDS011;3823;53.586;10.040;2023-06-24T16:54:19;4.82;;;4.47;;
7563;SDS011;3823;53.586;10.040;2023-06-24T16:56:46;4.65;;;4.22;;
7563;SDS011;3823;53.586;10.040;2023-06-24T16:59:12;8.13;;;4.97;;
7563;SDS011;3823;53.586;10.040;2023-06-24T17:01:38;4.40;;;4.05;;
7563;SDS011;3823;53.586;10.040;2023-06-24T17:04:03;5.75;;;4.50;;
7563;SDS011;3823;53.586;10.040;2023-06-24T17:06:29;4.85;;;4.03;;
7563;SDS011;3823;53.586;10.040;2023-06-24T17:08:54;4.70;;;4.30;;
7563;SDS011;3823;53.586;10.040;2023-06-24T17:11:21;5.25;;;4.75;;
7563;SDS011;3823;53.586;10.040;2023-06-24T17:13:47;7.15;;;3.90;;
7563;SDS011;3823;53.586;10.040;2023-06-24T17:16:13;5.53;;;5.03;;
7563;SDS011;3823;53.586;10.040;2023-06-24T17:18:38;6.43;;;5.25;;
7563;SDS011;3823;53.586;10.040;2023-06-24T17:21:04;5.40;;;4.68;;
7563;SDS011;3823;53.586;10.040;2023-06-24T17:23:30;8.57;;;5.05;;
7563;SDS011;3823;53.586;10.040;2023-06-24T17:25:55;5.18;;;4.65;;
7563;SDS011;3823;53.586;10.040;2023-06-24T17:28:21;5.35;;;4.68;;
7563;SDS011;3823;53.586;10.040;2023-06-24T17:30:47;5.82;;;5.32;;
7563;SDS011;3823;53.586;10.040;2023-06-24T17:33:12;5.68;;;5.07;;
7563;SDS011;3823;53.586;10.040;2023-06-24T17:35:38;6.35;;;5.40;;
7563;SDS011;3823;53.586;10.040;2023-06-24T17:38:03;5.85;;;5.25;;
7563;SDS011;3823;53.586;10.040;2023-06-24T17:40:29;5.68;;;5.18;;
7563;SDS011;3823;53.586;10.040;2023-06-24T17:42:55;5.40;;;4.57;;
7563;SDS011;3823;53.586;10.040;2023-06-24T17:45:21;4.80;;;4.32;;
7563;SDS011;3823;53.586;10.040;2023-06-24T17:47:47;5.65;;;4.43;;
7563;SDS011;3823;53.586;10.040;2023-06-24T17:50:13;5.68;;;4.03;;
7563;SDS011;3823;53.586;10.040;2023-06-24T17:52:38;3.90;;;3.60;;
7563;SDS011;3823;53.586;10.040;2023-06-24T17:55:04;4.90;;;4.47;;
7563;SDS011;3823;53.586;10.040;2023-06-24T17:57:30;5.80;;;5.22;;
7563;SDS011;3823;53.586;10.040;2023-06-24T17:59:56;6.03;;;4.93;;
7563;SDS011;3823;53.586;10.040;2023-06-24T18:02:21;4.40;;;4.07;;
7563;SDS011;3823;53.586;10.040;2023-06-24T18:04:47;8.63;;;5.72;;
7563;SDS011;3823;53.586;10.040;2023-06-24T18:07:12;5.70;;;4.85;;
7563;SDS011;3823;53.586;10.040;2023-06-24T18:09:38;5.20;;;4.68;;
7563;SDS011;3823;53.586;10.040;2023-06-24T18:12:04;5.22;;;4.60;;
7563;SDS011;3823;53.586;10.040;2023-06-24T18:14:30;5.40;;;4.78;;
7563;SDS011;3823;53.586;10.040;2023-06-24T18:16:55;4.47;;;4.07;;
7563;SDS011;3823;53.586;10.040;2023-06-24T18:19:21;5.63;;;4.38;;
7563;SDS011;3823;53.586;10.040;2023-06-24T18:21:46;4.35;;;4.05;;
7563;SDS011;3823;53.586;10.040;2023-06-24T18:24:12;4.30;;;3.95;;
7563;SDS011;3823;53.586;10.040;2023-06-24T18:26:38;13.23;;;4.93;;
7563;SDS011;3823;53.586;10.040;2023-06-24T18:29:04;4.97;;;4.20;;
7563;SDS011;3823;53.586;10.040;2023-06-24T18:31:30;4.72;;;4.18;;
7563;SDS011;3823;53.586;10.040;2023-06-24T18:33:55;4.25;;;3.85;;
7563;SDS011;3823;53.586;10.040;2023-06-24T18:36:21;4.70;;;4.07;;
7563;SDS011;3823;53.586;10.040;2023-06-24T18:38:46;5.28;;;4.72;;
7563;SDS011;3823;53.586;10.040;2023-06-24T18:41:12;5.70;;;4.55;;
7563;SDS011;3823;53.586;10.040;2023-06-24T18:43:38;10.65;;;4.18;;
7563;SDS011;3823;53.586;10.040;2023-06-24T18:46:03;6.50;;;4.50;;
7563;SDS011;3823;53.586;10.040;2023-06-24T18:48:32;5.97;;;5.20;;
7563;SDS011;3823;53.586;10.040;2023-06-24T18:50:58;5.70;;;5.20;;
7563;SDS011;3823;53.586;10.040;2023-06-24T18:53:24;7.05;;;5.10;;
7563;SDS011;3823;53.586;10.040;2023-06-24T18:55:50;12.80;;;5.32;;
7563;SDS011;3823;53.586;10.040;2023-06-24T18:58:16;7.68;;;4.78;;
7563;SDS011;3823;53.586;10.040;2023-06-24T19:00:41;6.25;;;5.15;;
7563;SDS011;3823;53.586;10.040;2023-06-24T19:03:07;5.88;;;5.15;;
7563;SDS011;3823;53.586;10.040;2023-06-24T19:05:32;5.55;;;4.95;;
7563;SDS011;3823;53.586;10.040;2023-06-24T19:08:01;4.88;;;4.47;;
7563;SDS011;3823;53.586;10.040;2023-06-24T19:10:27;5.30;;;4.80;;